createdAt,value
2022-09-17T00:01:29.695Z,9.80
2022-09-17T00:04:02.342Z,9.80
2022-09-17T00:06:30.451Z,9.70
2022-09-17T00:08:57.850Z,9.70
2022-09-17T00:11:29.286Z,9.80
2022-09-17T00:13:58.722Z,9.80
2022-09-17T00:16:34.088Z,9.70
2022-09-17T00:19:02.935Z,9.80
2022-09-17T00:21:31.050Z,9.70
2022-09-17T00:24:01.124Z,9.80
2022-09-17T00:26:30.025Z,9.80
2022-09-17T00:28:58.546Z,9.80
2022-09-17T00:31:27.479Z,9.80
2022-09-17T00:33:55.526Z,9.80
2022-09-17T00:36:23.492Z,9.90
2022-09-17T00:38:52.606Z,9.80
2022-09-17T00:41:21.721Z,9.80
2022-09-17T00:43:53.187Z,9.80
2022-09-17T00:46:40.977Z,9.70
2022-09-17T00:49:17.682Z,9.70
2022-09-17T00:52:10.415Z,9.70
2022-09-17T00:54:40.544Z,9.70
2022-09-17T00:57:08.431Z,9.80
2022-09-17T00:59:35.982Z,9.80
2022-09-17T01:02:05.002Z,9.90
2022-09-17T01:04:32.482Z,9.90
2022-09-17T01:07:11.839Z,9.80
2022-09-17T01:10:04.417Z,9.70
2022-09-17T01:12:56.392Z,9.70
2022-09-17T01:15:29.656Z,9.70
2022-09-17T01:18:07.085Z,9.70
2022-09-17T01:21:08.563Z,9.70
2022-09-17T01:23:54.898Z,9.70
2022-09-17T01:26:43.742Z,9.70
2022-09-17T01:29:29.921Z,9.70
2022-09-17T01:32:09.635Z,9.70
2022-09-17T01:35:13.399Z,9.70
2022-09-17T01:38:01.420Z,9.70
2022-09-17T01:40:47.613Z,9.70
2022-09-17T01:43:33.778Z,9.70
2022-09-17T01:46:08.410Z,9.60
2022-09-17T01:48:46.365Z,9.60
2022-09-17T01:51:21.344Z,9.70
2022-09-17T01:54:18.732Z,9.60
2022-09-17T01:57:11.590Z,9.60
2022-09-17T02:00:02.229Z,9.50
2022-09-17T02:02:45.913Z,9.60
2022-09-17T02:05:26.425Z,9.60
2022-09-17T02:08:10.899Z,9.60
2022-09-17T02:10:49.892Z,9.60
2022-09-17T02:13:52.510Z,9.70
2022-09-17T02:16:25.685Z,9.70
2022-09-17T02:19:23.966Z,9.70
2022-09-17T02:22:03.938Z,9.60
2022-09-17T02:24:40.402Z,9.60
2022-09-17T02:27:11.838Z,9.60
2022-09-17T02:29:42.742Z,9.50
2022-09-17T02:32:11.681Z,9.60
2022-09-17T02:34:39.508Z,9.60
2022-09-17T02:37:07.860Z,9.70
2022-09-17T02:39:35.536Z,9.70
2022-09-17T02:42:22.681Z,9.70
2022-09-17T02:45:20.202Z,9.70
2022-09-17T02:48:25.691Z,9.60
2022-09-17T02:51:07.975Z,9.60
2022-09-17T02:53:45.289Z,9.60
2022-09-17T02:56:28.221Z,9.60
2022-09-17T02:59:09.534Z,9.60
2022-09-17T03:01:45.327Z,9.60
2022-09-17T03:04:17.514Z,9.60
2022-09-17T03:06:48.346Z,9.60
2022-09-17T03:09:16.261Z,9.70
2022-09-17T03:11:43.817Z,9.70
2022-09-17T03:14:11.348Z,9.70
2022-09-17T03:16:38.892Z,9.60
2022-09-17T03:19:06.592Z,9.60
2022-09-17T03:21:34.010Z,9.60
2022-09-17T03:24:01.706Z,9.70
2022-09-17T03:26:29.185Z,9.60
2022-09-17T03:28:57.542Z,9.60
2022-09-17T03:31:25.195Z,9.60
2022-09-17T03:33:52.792Z,9.60
2022-09-17T03:36:20.425Z,9.60
2022-09-17T03:38:48.393Z,9.60
2022-09-17T03:41:15.925Z,9.70
2022-09-17T03:43:43.605Z,9.70
2022-09-17T03:46:11.162Z,9.60
2022-09-17T03:48:39.925Z,9.70
2022-09-17T03:51:07.645Z,9.70
2022-09-17T03:53:35.663Z,9.60
2022-09-17T03:56:05.208Z,9.70
2022-09-17T03:58:33.598Z,9.70
2022-09-17T04:01:00.966Z,9.70
2022-09-17T04:03:29.570Z,9.60
2022-09-17T04:05:57.455Z,9.70
2022-09-17T04:08:25.029Z,9.70
2022-09-17T04:10:52.398Z,9.70
2022-09-17T04:13:20.287Z,9.70
2022-09-17T04:15:48.478Z,9.70
2022-09-17T04:18:15.942Z,9.70
2022-09-17T04:20:43.863Z,9.70
2022-09-17T04:23:13.183Z,9.70
2022-09-17T04:25:41.241Z,9.70
2022-09-17T04:28:08.990Z,9.60
2022-09-17T04:30:36.801Z,9.60
2022-09-17T04:33:05.653Z,9.60
2022-09-17T04:35:33.330Z,9.70
2022-09-17T04:38:00.923Z,9.70
2022-09-17T04:40:29.150Z,9.70
2022-09-17T04:42:59.782Z,9.70
2022-09-17T04:45:27.561Z,9.70
2022-09-17T04:47:55.056Z,9.60
2022-09-17T04:50:22.882Z,9.70
2022-09-17T04:52:50.445Z,9.70
2022-09-17T04:55:17.905Z,9.70
2022-09-17T04:57:50.340Z,9.70
2022-09-17T05:00:19.163Z,9.70
2022-09-17T05:02:48.884Z,9.70
2022-09-17T05:05:18.190Z,9.70
2022-09-17T05:07:46.114Z,9.70
2022-09-17T05:10:15.404Z,9.70
2022-09-17T05:12:48.598Z,9.70
2022-09-17T05:15:16.221Z,9.70
2022-09-17T05:17:43.617Z,9.70
2022-09-17T05:20:12.495Z,9.70
2022-09-17T05:22:51.656Z,9.70
2022-09-17T05:25:24.273Z,9.80
2022-09-17T05:27:53.581Z,9.70
2022-09-17T05:30:21.295Z,9.70
2022-09-17T05:32:49.025Z,9.70
2022-09-17T05:35:16.699Z,9.70
2022-09-17T05:37:44.259Z,9.70
2022-09-17T05:40:11.890Z,9.70
2022-09-17T05:42:39.749Z,9.70
2022-09-17T05:45:07.836Z,9.70
2022-09-17T05:47:38.339Z,9.80
2022-09-17T05:50:06.572Z,9.70
2022-09-17T05:52:34.165Z,9.80
2022-09-17T05:55:02.848Z,9.70
2022-09-17T05:57:30.827Z,9.70
2022-09-17T05:59:58.424Z,9.80
2022-09-17T06:02:26.117Z,9.80
2022-09-17T06:04:53.980Z,9.70
2022-09-17T06:07:21.625Z,9.80
2022-09-17T06:09:49.334Z,9.80
2022-09-17T06:12:16.850Z,9.80
2022-09-17T06:14:44.301Z,9.80
2022-09-17T06:17:11.849Z,9.90
2022-09-17T06:19:39.313Z,9.80
2022-09-17T06:22:06.861Z,9.80
2022-09-17T06:24:34.269Z,9.80
2022-09-17T06:27:01.781Z,9.90
2022-09-17T06:29:30.760Z,9.90
2022-09-17T06:31:58.953Z,9.90
2022-09-17T06:34:27.549Z,9.90
2022-09-17T06:36:55.300Z,9.90
2022-09-17T06:39:22.765Z,9.90
2022-09-17T06:41:53.453Z,9.90
2022-09-17T06:44:21.886Z,9.90
2022-09-17T06:46:52.958Z,9.90
2022-09-17T06:49:20.722Z,9.90
2022-09-17T06:51:48.181Z,9.90
2022-09-17T06:54:15.645Z,9.90
2022-09-17T06:56:43.202Z,9.90
2022-09-17T06:59:10.752Z,9.90
2022-09-17T07:01:38.499Z,9.90
2022-09-17T07:04:06.712Z,9.90
2022-09-17T07:06:34.416Z,9.90
2022-09-17T07:09:01.904Z,9.90
2022-09-17T07:11:31.738Z,10.00
2022-09-17T07:13:59.652Z,10.00
2022-09-17T07:16:27.100Z,10.00
2022-09-17T07:18:54.701Z,10.00
2022-09-17T07:21:22.439Z,10.00
2022-09-17T07:23:52.019Z,10.00
2022-09-17T07:26:20.153Z,10.00
2022-09-17T07:28:50.428Z,10.00
2022-09-17T07:31:18.027Z,10.00
2022-09-17T07:33:45.992Z,10.00
2022-09-17T07:36:15.768Z,10.10
2022-09-17T07:38:43.222Z,10.10
2022-09-17T07:41:13.963Z,10.00
2022-09-17T07:43:42.867Z,10.10
2022-09-17T07:46:18.741Z,10.10
2022-09-17T07:48:48.066Z,10.10
2022-09-17T07:51:20.632Z,10.10
2022-09-17T07:53:50.945Z,10.10
2022-09-17T07:56:18.363Z,10.10
2022-09-17T07:58:45.901Z,10.20
2022-09-17T08:01:16.914Z,10.20
2022-09-17T08:03:52.285Z,10.10
2022-09-17T08:06:23.126Z,10.10
2022-09-17T08:08:50.699Z,10.10
2022-09-17T08:11:44.722Z,10.20
2022-09-17T08:14:12.950Z,10.20
2022-09-17T08:16:40.891Z,10.20
2022-09-17T08:19:10.904Z,10.30
2022-09-17T08:21:39.127Z,10.30
2022-09-17T08:24:06.723Z,10.30
2022-09-17T08:26:34.415Z,10.20
2022-09-17T08:29:01.965Z,10.30
2022-09-17T08:31:30.839Z,10.30
2022-09-17T08:33:58.583Z,10.20
2022-09-17T08:36:26.677Z,10.30
2022-09-17T08:38:55.773Z,10.30
2022-09-17T08:41:43.229Z,10.30
2022-09-17T08:44:36.862Z,10.30
2022-09-17T08:47:36.762Z,10.30
2022-09-17T08:50:18.392Z,10.40
2022-09-17T08:53:07.080Z,10.40
2022-09-17T08:55:46.554Z,10.40
2022-09-17T08:58:33.715Z,10.40
2022-09-17T09:01:38.908Z,10.40
2022-09-17T09:04:43.013Z,10.50
2022-09-17T09:07:26.464Z,10.40
2022-09-17T09:10:14.304Z,10.40
2022-09-17T09:12:43.756Z,10.50
2022-09-17T09:15:42.824Z,10.50
2022-09-17T09:18:21.028Z,10.50
2022-09-17T09:21:27.315Z,10.50
2022-09-17T09:24:10.048Z,10.50
2022-09-17T09:26:54.191Z,10.50
2022-09-17T09:29:47.919Z,10.50
2022-09-17T09:32:56.734Z,10.60
2022-09-17T09:35:25.758Z,10.60
2022-09-17T09:38:21.761Z,10.70
2022-09-17T09:41:21.597Z,10.70
2022-09-17T09:44:05.066Z,10.70
2022-09-17T09:46:51.609Z,10.70
2022-09-17T09:50:00.236Z,10.70
2022-09-17T09:52:37.103Z,10.70
2022-09-17T09:55:36.103Z,10.70
2022-09-17T09:58:25.259Z,10.70
2022-09-17T10:00:52.975Z,10.80
2022-09-17T10:03:28.447Z,10.80
2022-09-17T10:06:08.859Z,10.80
2022-09-17T10:08:39.416Z,10.80
2022-09-17T10:11:16.860Z,10.80
2022-09-17T10:13:44.472Z,10.90
2022-09-17T10:16:25.492Z,10.90
2022-09-17T10:19:08.313Z,11.00
2022-09-17T10:21:38.285Z,11.00
2022-09-17T10:24:25.550Z,11.10
2022-09-17T10:27:01.934Z,11.10
2022-09-17T10:29:29.768Z,11.10
2022-09-17T10:31:58.394Z,11.20
2022-09-17T10:34:29.213Z,11.20
2022-09-17T10:36:57.560Z,11.20
2022-09-17T10:39:32.957Z,11.30
2022-09-17T10:42:14.281Z,11.30
2022-09-17T10:44:59.260Z,11.40
2022-09-17T10:47:37.362Z,11.50
2022-09-17T10:50:05.039Z,11.70
2022-09-17T10:52:47.315Z,11.80
2022-09-17T10:55:33.942Z,11.80
2022-09-17T10:58:25.105Z,11.70
2022-09-17T11:01:18.323Z,11.70
2022-09-17T11:04:06.197Z,11.60
2022-09-17T11:07:21.459Z,11.70
2022-09-17T11:10:12.884Z,11.60
2022-09-17T11:12:57.122Z,11.70
2022-09-17T11:15:24.766Z,11.60
2022-09-17T11:18:04.042Z,11.60
2022-09-17T11:20:57.637Z,11.60
2022-09-17T11:23:39.646Z,11.60
2022-09-17T11:26:27.843Z,11.70
2022-09-17T11:29:04.236Z,11.80
2022-09-17T11:31:59.973Z,11.90
2022-09-17T11:34:43.097Z,11.90
2022-09-17T11:37:16.599Z,11.80
2022-09-17T11:39:59.386Z,11.80
2022-09-17T11:42:36.798Z,11.80
2022-09-17T11:45:27.869Z,11.70
2022-09-17T11:48:17.925Z,11.70
2022-09-17T11:50:54.845Z,11.70
2022-09-17T11:53:40.099Z,11.90
2022-09-17T11:56:24.753Z,12.10
2022-09-17T11:59:18.911Z,12.20
2022-09-17T12:02:24.338Z,12.30
2022-09-17T12:05:01.842Z,12.40
2022-09-17T12:07:47.840Z,12.60
2022-09-17T12:10:27.389Z,12.80
2022-09-17T12:13:04.018Z,13.00
2022-09-17T12:15:38.806Z,13.10
2022-09-17T12:18:46.071Z,13.30
2022-09-17T12:21:19.360Z,13.30
2022-09-17T12:23:53.493Z,13.60
2022-09-17T12:26:54.387Z,13.60
2022-09-17T12:29:58.208Z,13.60
2022-09-17T12:32:33.706Z,13.70
2022-09-17T12:35:53.088Z,13.80
2022-09-17T12:38:50.616Z,13.80
2022-09-17T12:41:39.567Z,13.80
2022-09-17T12:44:28.251Z,14.00
2022-09-17T12:47:13.834Z,14.30
2022-09-17T12:49:54.802Z,14.30
2022-09-17T12:52:46.570Z,14.20
2022-09-17T12:55:53.143Z,14.20
2022-09-17T12:59:06.633Z,14.00
2022-09-17T13:01:49.345Z,13.70
2022-09-17T13:04:59.586Z,13.50
2022-09-17T13:07:43.974Z,13.40
2022-09-17T13:10:33.316Z,13.30
2022-09-17T13:13:20.847Z,13.20
2022-09-17T13:16:26.093Z,13.20
2022-09-17T13:19:15.543Z,13.20
2022-09-17T13:22:00.586Z,13.20
2022-09-17T13:24:31.512Z,13.20
2022-09-17T13:27:02.284Z,13.20
2022-09-17T13:29:55.624Z,13.20
2022-09-17T13:32:35.685Z,13.30
2022-09-17T13:35:12.319Z,13.10
2022-09-17T13:37:58.199Z,13.00
2022-09-17T13:40:31.545Z,12.80
2022-09-17T13:43:06.481Z,12.70
2022-09-17T13:45:35.334Z,12.70
2022-09-17T13:48:11.851Z,12.60
2022-09-17T13:50:42.279Z,12.50
2022-09-17T13:53:15.769Z,12.50
2022-09-17T13:55:51.396Z,12.40
2022-09-17T13:58:21.780Z,12.30
2022-09-17T14:01:02.161Z,12.30
2022-09-17T14:03:37.032Z,12.30
2022-09-17T14:06:19.001Z,12.30
2022-09-17T14:08:52.355Z,12.10
2022-09-17T14:11:22.983Z,12.10
2022-09-17T14:14:05.868Z,12.10
2022-09-17T14:16:41.245Z,12.10
2022-09-17T14:19:33.777Z,12.10
2022-09-17T14:22:14.886Z,12.10
2022-09-17T14:24:45.329Z,12.00
2022-09-17T14:27:31.775Z,11.90
2022-09-17T14:30:16.962Z,11.80
2022-09-17T14:33:09.489Z,11.80
2022-09-17T14:35:45.949Z,11.80
2022-09-17T14:38:34.586Z,11.90
2022-09-17T14:41:07.543Z,11.90
2022-09-17T14:44:03.134Z,11.90
2022-09-17T14:46:34.912Z,11.90
2022-09-17T14:49:25.111Z,11.90
2022-09-17T14:51:53.921Z,11.80
2022-09-17T14:54:35.791Z,11.80
2022-09-17T14:57:42.371Z,11.90
2022-09-17T15:00:22.321Z,11.90
2022-09-17T15:02:59.848Z,11.80
2022-09-17T15:05:34.486Z,11.80
2022-09-17T15:08:12.290Z,11.70
2022-09-17T15:11:02.549Z,11.70
2022-09-17T15:13:42.058Z,11.70
2022-09-17T15:16:30.876Z,11.60
2022-09-17T15:19:00.601Z,11.50
2022-09-17T15:21:42.177Z,11.50
2022-09-17T15:24:34.789Z,11.40
2022-09-17T15:27:28.859Z,11.40
2022-09-17T15:30:07.388Z,11.30
2022-09-17T15:32:35.244Z,11.40
2022-09-17T15:35:11.876Z,11.40
2022-09-17T15:38:18.533Z,11.40
2022-09-17T15:40:41.953Z,11.40
2022-09-17T15:43:29.736Z,11.30
2022-09-17T15:46:01.005Z,11.30
2022-09-17T15:48:28.504Z,11.40
2022-09-17T15:50:57.881Z,11.40
2022-09-17T15:53:30.552Z,11.30
2022-09-17T15:56:01.142Z,11.30
2022-09-17T15:58:50.912Z,11.20
2022-09-17T16:01:18.855Z,11.20
2022-09-17T16:03:46.497Z,11.30
2022-09-17T16:06:20.144Z,11.30
2022-09-17T16:08:50.143Z,11.20
2022-09-17T16:11:19.329Z,11.10
2022-09-17T16:13:50.823Z,11.10
2022-09-17T16:16:20.782Z,11.10
2022-09-17T16:18:49.407Z,11.10
2022-09-17T16:21:18.922Z,11.10
2022-09-17T16:23:47.232Z,11.20
2022-09-17T16:26:21.977Z,11.30
2022-09-17T16:28:54.375Z,11.20
2022-09-17T16:31:21.969Z,11.30
2022-09-17T16:33:49.594Z,11.30
2022-09-17T16:36:17.981Z,11.20
2022-09-17T16:38:45.512Z,11.30
2022-09-17T16:41:13.531Z,11.30
2022-09-17T16:43:41.052Z,11.30
2022-09-17T16:46:11.043Z,11.30
2022-09-17T16:48:38.939Z,11.30
2022-09-17T16:51:11.322Z,11.30
2022-09-17T16:53:40.105Z,11.20
2022-09-17T16:56:12.721Z,11.30
2022-09-17T16:58:41.711Z,11.20
2022-09-17T17:01:09.995Z,11.30
2022-09-17T17:03:37.618Z,11.10
2022-09-17T17:06:05.902Z,11.10
2022-09-17T17:08:34.374Z,11.10
2022-09-17T17:11:02.151Z,11.20
2022-09-17T17:13:29.653Z,11.20
2022-09-17T17:15:57.105Z,11.20
2022-09-17T17:18:25.347Z,11.20
2022-09-17T17:20:52.725Z,11.00
2022-09-17T17:23:21.340Z,11.10
2022-09-17T17:25:49.194Z,11.10
2022-09-17T17:28:16.680Z,10.90
2022-09-17T17:30:48.225Z,11.00
2022-09-17T17:33:15.819Z,11.00
2022-09-17T17:35:43.331Z,10.90
2022-09-17T17:38:11.510Z,10.80
2022-09-17T17:40:39.066Z,10.80
2022-09-17T17:43:06.636Z,10.80
2022-09-17T17:45:34.550Z,10.80
2022-09-17T17:48:02.404Z,10.80
2022-09-17T17:50:30.006Z,10.80
2022-09-17T17:52:57.980Z,10.80
2022-09-17T17:55:26.673Z,10.90
2022-09-17T17:58:01.432Z,10.90
2022-09-17T18:00:29.585Z,10.80
2022-09-17T18:02:57.156Z,10.90
2022-09-17T18:05:24.716Z,10.90
2022-09-17T18:07:52.162Z,10.80
2022-09-17T18:10:20.133Z,10.80
2022-09-17T18:12:50.805Z,10.60
2022-09-17T18:15:18.866Z,10.60
2022-09-17T18:17:48.249Z,10.50
2022-09-17T18:20:16.426Z,10.50
2022-09-17T18:22:43.964Z,10.60
2022-09-17T18:25:12.204Z,10.60
2022-09-17T18:27:40.051Z,10.50
2022-09-17T18:30:08.413Z,10.50
2022-09-17T18:32:39.911Z,10.50
2022-09-17T18:35:09.204Z,10.60
2022-09-17T18:37:36.734Z,10.60
2022-09-17T18:40:04.854Z,10.60
2022-09-17T18:42:32.366Z,10.60
2022-09-17T18:45:00.043Z,10.60
2022-09-17T18:47:27.494Z,10.60
2022-09-17T18:49:55.577Z,10.60
2022-09-17T18:52:23.068Z,10.40
2022-09-17T18:54:55.989Z,10.50
2022-09-17T18:57:27.188Z,10.50
2022-09-17T18:59:54.680Z,10.50
2022-09-17T19:02:22.168Z,10.40
2022-09-17T19:04:49.761Z,10.40
2022-09-17T19:07:17.230Z,10.40
2022-09-17T19:09:45.174Z,10.30
2022-09-17T19:12:12.567Z,10.30
2022-09-17T19:14:40.135Z,10.40
2022-09-17T19:17:09.222Z,10.40
2022-09-17T19:19:36.801Z,10.40
2022-09-17T19:22:04.597Z,10.50
2022-09-17T19:24:33.334Z,10.40
2022-09-17T19:27:01.934Z,10.40
2022-09-17T19:29:29.432Z,10.50
2022-09-17T19:31:57.031Z,10.40
2022-09-17T19:34:24.912Z,10.40
2022-09-17T19:36:52.424Z,10.40
2022-09-17T19:39:20.050Z,10.40
2022-09-17T19:41:47.446Z,10.40
2022-09-17T19:44:15.354Z,10.50
2022-09-17T19:46:43.105Z,10.40
2022-09-17T19:49:11.270Z,10.40
2022-09-17T19:51:38.682Z,10.30
2022-09-17T19:54:09.810Z,10.30
2022-09-17T19:56:37.654Z,10.40
2022-09-17T19:59:05.764Z,10.40
2022-09-17T20:01:35.227Z,10.50
2022-09-17T20:04:03.014Z,10.40
2022-09-17T20:06:35.483Z,10.50
2022-09-17T20:09:03.531Z,10.50
2022-09-17T20:11:32.788Z,10.50
2022-09-17T20:14:07.529Z,10.50
2022-09-17T20:16:36.875Z,10.40
2022-09-17T20:19:06.405Z,10.40
2022-09-17T20:21:35.113Z,10.40
2022-09-17T20:24:02.850Z,10.40
2022-09-17T20:26:30.496Z,10.30
2022-09-17T20:28:58.239Z,10.40
2022-09-17T20:31:31.702Z,10.40
2022-09-17T20:34:01.519Z,10.30
2022-09-17T20:36:31.264Z,10.30
2022-09-17T20:39:21.134Z,10.40
2022-09-17T20:41:46.669Z,10.30
2022-09-17T20:44:14.202Z,10.30
2022-09-17T20:46:41.905Z,10.30
2022-09-17T20:49:09.647Z,10.20
2022-09-17T20:51:37.359Z,10.20
2022-09-17T20:54:05.300Z,10.20
2022-09-17T20:56:34.550Z,10.20
2022-09-17T20:59:18.978Z,10.20
2022-09-17T21:01:49.966Z,10.20
2022-09-17T21:04:20.141Z,10.30
2022-09-17T21:06:50.985Z,10.40
2022-09-17T21:09:18.635Z,10.30
2022-09-17T21:11:48.178Z,10.30
2022-09-17T21:14:17.510Z,10.40
2022-09-17T21:16:46.082Z,10.40
2022-09-17T21:19:17.219Z,10.20
2022-09-17T21:21:45.251Z,10.20
2022-09-17T21:24:12.915Z,10.30
2022-09-17T21:26:40.503Z,10.40
2022-09-17T21:29:08.023Z,10.30
2022-09-17T21:31:37.268Z,10.30
2022-09-17T21:34:10.931Z,10.40
2022-09-17T21:36:41.195Z,10.40
2022-09-17T21:39:14.219Z,10.40
2022-09-17T21:41:44.135Z,10.40
2022-09-17T21:44:12.513Z,10.30
2022-09-17T21:46:41.449Z,10.20
2022-09-17T21:49:09.730Z,10.20
2022-09-17T21:51:39.959Z,10.20
2022-09-17T21:54:16.061Z,10.30
2022-09-17T21:56:44.968Z,10.30
2022-09-17T21:59:14.108Z,10.20
2022-09-17T22:01:48.384Z,10.20
2022-09-17T22:04:21.324Z,10.30
2022-09-17T22:06:50.231Z,10.30
2022-09-17T22:09:21.310Z,10.30
2022-09-17T22:11:49.731Z,10.30
2022-09-17T22:14:19.872Z,10.20
2022-09-17T22:16:51.134Z,10.20
2022-09-17T22:19:20.113Z,10.20
2022-09-17T22:21:51.711Z,10.20
2022-09-17T22:24:21.363Z,10.20
2022-09-17T22:26:55.977Z,10.20
2022-09-17T22:29:25.189Z,10.20
2022-09-17T22:31:53.179Z,10.20
2022-09-17T22:34:23.039Z,10.30
2022-09-17T22:36:51.031Z,10.30
2022-09-17T22:39:21.461Z,10.20
2022-09-17T22:41:50.431Z,10.20
2022-09-17T22:44:19.727Z,10.20
2022-09-17T22:46:49.827Z,10.30
2022-09-17T22:49:18.419Z,10.40
2022-09-17T22:51:47.400Z,10.40
2022-09-17T22:54:17.270Z,10.40
2022-09-17T22:56:45.730Z,10.40
2022-09-17T22:59:13.666Z,10.40
2022-09-17T23:01:42.123Z,10.30
2022-09-17T23:04:10.662Z,10.40
2022-09-17T23:06:42.313Z,10.30
2022-09-17T23:09:11.709Z,10.30
2022-09-17T23:11:40.149Z,10.30
2022-09-17T23:14:10.583Z,10.30
2022-09-17T23:16:43.821Z,10.40
2022-09-17T23:19:12.077Z,10.40
2022-09-17T23:21:40.103Z,10.30
2022-09-17T23:24:08.952Z,10.40
2022-09-17T23:26:36.422Z,10.40
2022-09-17T23:29:05.489Z,10.30
2022-09-17T23:31:35.362Z,10.30
2022-09-17T23:34:05.232Z,10.30
2022-09-17T23:36:37.254Z,10.40
2022-09-17T23:39:09.269Z,10.30
2022-09-17T23:41:40.149Z,10.30
2022-09-17T23:44:14.563Z,10.40
2022-09-17T23:46:43.031Z,10.40
2022-09-17T23:49:11.965Z,10.40
2022-09-17T23:51:39.584Z,10.40
2022-09-17T23:54:09.304Z,10.40
2022-09-17T23:56:37.089Z,10.40
2022-09-17T23:59:05.269Z,10.40
